createdAt,value
2022-12-20T00:01:22.952Z,980.57
2022-12-20T00:08:56.569Z,980.44
2022-12-20T00:16:33.473Z,980.33
2022-12-20T00:24:10.611Z,980.24
2022-12-20T00:31:48.860Z,980.14
2022-12-20T00:39:19.301Z,980.2
2022-12-20T00:46:50.661Z,980.2
2022-12-20T00:54:22.359Z,980.19
2022-12-20T01:02:11.519Z,980.18
2022-12-20T01:09:46.458Z,980.2
2022-12-20T01:17:25.461Z,980.13
2022-12-20T01:24:57.600Z,980.14
2022-12-20T01:32:31.764Z,980.14
2022-12-20T01:40:12.840Z,979.97
2022-12-20T01:47:50.114Z,979.96
2022-12-20T01:55:43.339Z,979.98
2022-12-20T02:03:31.411Z,979.85
2022-12-20T02:10:58.947Z,979.86
2022-12-20T02:19:16.639Z,979.69
2022-12-20T02:27:27.762Z,979.73
2022-12-20T02:35:24.139Z,979.74
2022-12-20T02:43:06.730Z,979.75
2022-12-20T02:50:54.898Z,979.53
2022-12-20T02:58:40.328Z,979.34
2022-12-20T03:06:32.755Z,979.43
2022-12-20T03:14:00.462Z,979.33
2022-12-20T03:21:20.046Z,979.27
2022-12-20T03:28:55.812Z,979.27
2022-12-20T03:36:24.441Z,979.35
2022-12-20T03:43:45.231Z,979.31
2022-12-20T03:51:19.355Z,979.37
2022-12-20T03:58:46.681Z,979.13
2022-12-20T04:06:24.023Z,979.22
2022-12-20T04:13:55.411Z,979.26
2022-12-20T04:21:28.534Z,979.27
2022-12-20T04:29:03.734Z,979.13
2022-12-20T04:36:34.829Z,979.2
2022-12-20T04:44:06.773Z,979.1
2022-12-20T04:51:35.945Z,978.92
2022-12-20T04:59:06.660Z,978.82
2022-12-20T05:06:30.834Z,978.98
2022-12-20T05:13:51.405Z,979.01
2022-12-20T05:21:19.443Z,978.98
2022-12-20T05:28:38.757Z,978.88
2022-12-20T05:35:51.427Z,978.77
2022-12-20T05:43:09.791Z,978.81
2022-12-20T05:49:38.853Z,978.85
2022-12-20T05:56:02.712Z,978.78
2022-12-20T06:02:26.516Z,978.64
2022-12-20T06:08:51.935Z,978.67
2022-12-20T06:15:19.443Z,978.76
2022-12-20T06:21:57.428Z,978.65
2022-12-20T06:28:20.745Z,978.64
2022-12-20T06:34:51.520Z,978.5
2022-12-20T06:41:16.389Z,978.52
2022-12-20T06:47:49.485Z,978.36
2022-12-20T06:54:11.925Z,978.45
2022-12-20T07:00:49.948Z,978.49
2022-12-20T07:07:12.441Z,978.42
2022-12-20T07:13:39.539Z,978.33
2022-12-20T07:20:15.460Z,978.19
2022-12-20T07:26:41.521Z,978.22
2022-12-20T07:33:12.787Z,978.1
2022-12-20T07:39:38.454Z,977.95
2022-12-20T07:46:05.755Z,978.06
2022-12-20T07:52:36.300Z,977.99
2022-12-20T07:59:21.107Z,978
2022-12-20T08:06:10.418Z,977.95
2022-12-20T08:12:49.294Z,977.87
2022-12-20T08:19:13.270Z,977.95
2022-12-20T08:25:42.661Z,977.92
2022-12-20T08:32:16.592Z,977.95
2022-12-20T08:38:44.482Z,978.03
2022-12-20T08:45:05.808Z,978.01
2022-12-20T08:51:45.902Z,977.89
2022-12-20T08:58:09.544Z,977.86
2022-12-20T09:04:38.094Z,977.77
2022-12-20T09:11:12.564Z,977.67
2022-12-20T09:17:43.524Z,977.64
2022-12-20T09:24:14.059Z,977.71
2022-12-20T09:30:50.484Z,977.62
2022-12-20T09:37:11.634Z,977.66
2022-12-20T09:43:47.146Z,977.63
2022-12-20T09:50:33.691Z,977.76
2022-12-20T09:57:32.597Z,977.69
2022-12-20T10:04:30.699Z,977.61
2022-12-20T10:11:48.185Z,977.44
2022-12-20T10:18:48.396Z,977.34
2022-12-20T10:25:47.210Z,977.26
2022-12-20T10:32:38.907Z,977.18
2022-12-20T10:39:28.926Z,977.19
2022-12-20T10:46:34.392Z,977.14
2022-12-20T10:53:37.653Z,976.99
2022-12-20T11:00:30.637Z,976.79
2022-12-20T11:07:15.540Z,976.78
2022-12-20T11:14:07.588Z,976.59
2022-12-20T11:21:20.454Z,976.52
2022-12-20T11:28:32.557Z,976.49
2022-12-20T11:35:35.932Z,976.55
2022-12-20T11:42:49.118Z,976.44
2022-12-20T11:49:59.066Z,976.4
2022-12-20T11:57:06.750Z,976.22
2022-12-20T12:04:10.251Z,975.93
2022-12-20T12:18:43.180Z,975.69
2022-12-20T12:25:42.210Z,975.49
2022-12-20T12:32:30.633Z,975.62
2022-12-20T12:39:39.017Z,975.73
2022-12-20T12:46:39.062Z,975.9
2022-12-20T12:53:32.151Z,975.92
2022-12-20T13:00:29.979Z,975.78
2022-12-20T13:07:42.839Z,975.7
2022-12-20T13:14:16.906Z,975.6
2022-12-20T13:20:53.734Z,975.59
2022-12-20T13:28:12.377Z,975.44
2022-12-20T13:35:53.124Z,975.27
2022-12-20T13:43:36.100Z,975.31
2022-12-20T13:51:32.000Z,975.21
2022-12-20T13:59:19.123Z,975.13
2022-12-20T14:06:57.626Z,975.08
2022-12-20T14:14:44.336Z,975.13
2022-12-20T14:22:20.090Z,975.25
2022-12-20T14:30:13.541Z,975.23
2022-12-20T14:38:00.168Z,975.12
2022-12-20T14:45:48.780Z,975.07
2022-12-20T14:53:38.232Z,974.88
2022-12-20T15:01:44.856Z,974.73
2022-12-20T15:09:44.458Z,974.8
2022-12-20T15:17:10.723Z,974.68
2022-12-20T15:24:31.025Z,974.81
2022-12-20T15:31:53.187Z,974.81
2022-12-20T15:39:25.528Z,974.86
2022-12-20T15:47:02.892Z,974.86
2022-12-20T15:54:32.098Z,974.8
2022-12-20T16:01:55.733Z,974.97
2022-12-20T16:09:30.758Z,974.79
2022-12-20T16:16:59.695Z,974.76
2022-12-20T16:24:17.734Z,974.7
2022-12-20T16:31:42.383Z,974.72
2022-12-20T16:38:53.138Z,974.71
2022-12-20T16:46:24.704Z,974.67
2022-12-20T16:54:21.159Z,974.68
2022-12-20T17:01:57.990Z,974.56
2022-12-20T17:09:29.714Z,974.6
2022-12-20T17:16:58.329Z,974.61
2022-12-20T17:24:15.139Z,974.62
2022-12-20T17:31:38.281Z,974.65
2022-12-20T17:39:04.894Z,974.68
2022-12-20T17:46:40.534Z,974.68
2022-12-20T17:54:15.711Z,974.56
2022-12-20T18:01:56.676Z,974.48
2022-12-20T18:09:38.509Z,974.41
2022-12-20T18:17:01.959Z,974.35
2022-12-20T18:24:29.959Z,974.42
2022-12-20T18:31:55.787Z,974.49
2022-12-20T18:39:15.140Z,974.49
2022-12-20T18:46:28.421Z,974.51
2022-12-20T18:53:50.224Z,974.49
2022-12-20T19:01:15.800Z,974.49
2022-12-20T19:08:41.224Z,974.54
2022-12-20T19:15:54.375Z,974.42
2022-12-20T19:23:21.229Z,974.42
2022-12-20T19:30:35.772Z,974.37
2022-12-20T19:37:55.881Z,974.35
2022-12-20T19:45:16.510Z,974.36
2022-12-20T19:52:30.239Z,974.25
2022-12-20T19:59:56.923Z,974.15
2022-12-20T20:07:18.986Z,974.13
2022-12-20T20:14:37.865Z,974.06
2022-12-20T20:22:22.989Z,974.04
2022-12-20T20:29:42.611Z,973.98
2022-12-20T20:37:09.459Z,973.92
2022-12-20T20:44:39.427Z,973.89
2022-12-20T20:51:58.921Z,973.9
2022-12-20T20:59:17.428Z,973.86
2022-12-20T21:06:57.523Z,973.85
2022-12-20T21:14:08.944Z,973.7
2022-12-20T21:21:28.397Z,973.65
2022-12-20T21:28:50.993Z,973.65
2022-12-20T21:36:15.022Z,973.56
2022-12-20T21:43:32.576Z,973.56
2022-12-20T21:50:58.295Z,973.47
2022-12-20T21:58:18.158Z,973.44
2022-12-20T22:05:37.966Z,973.42
2022-12-20T22:12:53.479Z,973.38
2022-12-20T22:20:11.363Z,973.42
2022-12-20T22:27:34.518Z,973.52
2022-12-20T22:34:49.096Z,973.4
2022-12-20T22:42:05.819Z,973.4
2022-12-20T22:49:22.153Z,973.3
2022-12-20T22:56:59.197Z,973.31
2022-12-20T23:04:30.017Z,973.31
2022-12-20T23:11:47.833Z,973.27
2022-12-20T23:19:11.879Z,973.24
2022-12-20T23:26:50.013Z,973.22
2022-12-20T23:34:22.406Z,973.26
2022-12-20T23:42:05.922Z,973.26
2022-12-20T23:49:37.049Z,973.22
2022-12-20T23:57:13.768Z,973.21
